createdAt,value
2019-02-14T00:01:53.692Z,3.80
2019-02-14T00:04:24.062Z,3.80
2019-02-14T00:06:53.964Z,3.80
2019-02-14T00:09:24.178Z,3.70
2019-02-14T00:11:54.014Z,3.70
2019-02-14T00:14:23.745Z,3.70
2019-02-14T00:16:55.082Z,3.70
2019-02-14T00:19:25.030Z,3.60
2019-02-14T00:21:55.814Z,3.60
2019-02-14T00:24:26.224Z,3.50
2019-02-14T00:26:57.658Z,3.50
2019-02-14T00:29:27.249Z,3.50
2019-02-14T00:31:56.084Z,3.40
2019-02-14T00:34:27.609Z,3.40
2019-02-14T00:36:58.673Z,3.30
2019-02-14T00:39:28.507Z,3.30
2019-02-14T00:41:58.722Z,3.20
2019-02-14T00:44:29.217Z,3.20
2019-02-14T00:46:59.004Z,3.20
2019-02-14T00:49:27.574Z,3.10
2019-02-14T00:51:58.114Z,3.10
2019-02-14T00:54:27.658Z,3.10
2019-02-14T00:56:57.862Z,3.00
2019-02-14T00:59:26.939Z,3.00
2019-02-14T01:01:56.406Z,3.00
2019-02-14T01:04:24.894Z,3.00
2019-02-14T01:06:55.706Z,3.00
2019-02-14T01:09:24.209Z,2.90
2019-02-14T01:11:56.326Z,2.90
2019-02-14T01:14:26.445Z,2.80
2019-02-14T01:16:57.402Z,2.80
2019-02-14T01:19:27.576Z,2.80
2019-02-14T01:21:57.338Z,2.80
2019-02-14T01:24:25.902Z,2.90
2019-02-14T01:26:54.421Z,2.90
2019-02-14T01:29:24.546Z,2.80
2019-02-14T01:31:54.948Z,2.80
2019-02-14T01:34:24.700Z,2.80
2019-02-14T01:36:55.117Z,2.80
2019-02-14T01:39:24.940Z,2.70
2019-02-14T01:41:57.798Z,2.70
2019-02-14T01:44:30.603Z,2.70
2019-02-14T01:47:01.431Z,2.70
2019-02-14T01:49:31.256Z,2.70
2019-02-14T01:52:01.374Z,2.70
2019-02-14T01:54:31.705Z,2.70
2019-02-14T01:57:00.289Z,2.70
2019-02-14T01:59:30.082Z,2.80
2019-02-14T02:02:00.406Z,2.80
2019-02-14T02:04:29.719Z,2.80
2019-02-14T02:07:00.631Z,2.80
2019-02-14T02:09:29.482Z,2.70
2019-02-14T02:11:58.070Z,2.70
2019-02-14T02:14:26.566Z,2.60
2019-02-14T02:16:55.645Z,2.60
2019-02-14T02:19:26.003Z,2.60
2019-02-14T02:21:54.769Z,2.60
2019-02-14T02:24:24.419Z,2.50
2019-02-14T02:26:53.247Z,2.60
2019-02-14T02:29:23.674Z,2.50
2019-02-14T02:31:52.752Z,2.50
2019-02-14T02:34:21.657Z,2.50
2019-02-14T02:36:51.432Z,2.50
2019-02-14T02:39:21.252Z,2.50
2019-02-14T02:41:50.103Z,2.50
2019-02-14T02:44:18.663Z,2.50
2019-02-14T02:46:49.438Z,2.40
2019-02-14T02:49:19.330Z,2.40
2019-02-14T02:51:49.454Z,2.40
2019-02-14T02:54:19.628Z,2.30
2019-02-14T02:56:49.847Z,2.30
2019-02-14T02:59:18.414Z,2.30
2019-02-14T03:01:47.000Z,2.20
2019-02-14T03:04:18.138Z,2.20
2019-02-14T03:06:49.618Z,2.10
2019-02-14T03:09:18.114Z,2.10
2019-02-14T03:11:48.270Z,2.20
2019-02-14T03:14:18.042Z,2.30
2019-02-14T03:16:48.163Z,2.20
2019-02-14T03:19:16.740Z,2.20
2019-02-14T03:21:45.313Z,2.20
2019-02-14T03:24:13.982Z,2.10
2019-02-14T03:26:43.057Z,2.10
2019-02-14T03:29:11.558Z,2.00
2019-02-14T03:31:43.373Z,2.00
2019-02-14T03:34:15.616Z,2.00
2019-02-14T03:36:47.115Z,2.00
2019-02-14T03:39:17.248Z,1.90
2019-02-14T03:41:48.808Z,1.90
2019-02-14T03:44:19.186Z,1.80
2019-02-14T03:46:47.766Z,1.80
2019-02-14T03:49:16.333Z,1.70
2019-02-14T03:51:46.940Z,1.70
2019-02-14T03:54:16.519Z,1.70
2019-02-14T03:56:48.179Z,1.70
2019-02-14T03:59:16.743Z,1.70
2019-02-14T04:01:46.303Z,1.60
2019-02-14T04:04:15.602Z,1.60
2019-02-14T04:06:44.194Z,1.60
2019-02-14T04:09:12.761Z,1.50
2019-02-14T04:11:42.324Z,1.50
2019-02-14T04:14:12.186Z,1.50
2019-02-14T04:16:42.282Z,1.50
2019-02-14T04:19:13.232Z,1.50
2019-02-14T04:21:41.736Z,1.40
2019-02-14T04:24:10.234Z,1.40
2019-02-14T04:26:38.810Z,1.40
2019-02-14T04:29:09.199Z,1.30
2019-02-14T04:31:39.644Z,1.30
2019-02-14T04:34:09.558Z,1.30
2019-02-14T04:36:40.946Z,1.30
2019-02-14T04:39:12.849Z,1.30
2019-02-14T04:41:41.979Z,1.40
2019-02-14T04:44:11.039Z,1.40
2019-02-14T04:46:41.033Z,1.30
2019-02-14T04:49:09.518Z,1.30
2019-02-14T04:51:39.153Z,1.30
2019-02-14T04:54:08.002Z,1.30
2019-02-14T04:56:38.830Z,1.30
2019-02-14T04:59:07.342Z,1.20
2019-02-14T05:01:35.919Z,1.20
2019-02-14T05:04:04.767Z,1.20
2019-02-14T05:06:33.360Z,1.20
2019-02-14T05:09:03.661Z,1.20
2019-02-14T05:11:32.482Z,1.20
2019-02-14T05:14:02.597Z,1.20
2019-02-14T05:16:31.086Z,1.20
2019-02-14T05:19:00.161Z,1.10
2019-02-14T05:21:28.738Z,1.10
2019-02-14T05:23:58.859Z,1.10
2019-02-14T05:26:28.105Z,1.10
2019-02-14T05:28:56.703Z,1.10
2019-02-14T05:31:26.735Z,1.10
2019-02-14T05:33:57.213Z,1.10
2019-02-14T05:36:26.111Z,1.10
2019-02-14T05:38:58.574Z,1.10
2019-02-14T05:41:28.702Z,1.10
2019-02-14T05:43:58.646Z,1.10
2019-02-14T05:46:27.409Z,1.10
2019-02-14T05:48:58.832Z,1.10
2019-02-14T05:51:29.280Z,1.20
2019-02-14T05:53:59.539Z,1.20
2019-02-14T05:56:28.300Z,1.40
2019-02-14T05:58:57.530Z,1.40
2019-02-14T06:01:28.090Z,1.40
2019-02-14T06:04:00.325Z,1.40
2019-02-14T06:06:29.145Z,1.30
2019-02-14T06:08:57.917Z,1.40
2019-02-14T06:11:26.477Z,1.40
2019-02-14T06:13:56.694Z,1.40
2019-02-14T06:16:26.801Z,1.40
2019-02-14T06:18:57.098Z,1.40
2019-02-14T06:21:28.432Z,1.40
2019-02-14T06:23:58.641Z,1.40
2019-02-14T06:26:27.209Z,1.40
2019-02-14T06:28:56.393Z,1.40
2019-02-14T06:31:24.895Z,1.30
2019-02-14T06:33:56.434Z,1.30
2019-02-14T06:36:26.533Z,1.30
2019-02-14T06:38:56.677Z,1.30
2019-02-14T06:41:25.240Z,1.30
2019-02-14T06:43:53.847Z,1.30
2019-02-14T06:46:23.670Z,1.30
2019-02-14T06:48:55.541Z,1.30
2019-02-14T06:51:25.615Z,1.40
2019-02-14T06:53:54.144Z,1.40
2019-02-14T06:56:23.312Z,1.40
2019-02-14T06:58:52.175Z,1.50
2019-02-14T07:01:20.738Z,1.50
2019-02-14T07:03:49.249Z,1.60
2019-02-14T07:06:17.822Z,1.60
2019-02-14T07:08:46.409Z,1.70
2019-02-14T07:11:15.469Z,1.70
2019-02-14T07:13:45.830Z,1.70
2019-02-14T07:16:14.850Z,1.70
2019-02-14T07:18:43.380Z,1.70
2019-02-14T07:21:13.528Z,1.70
2019-02-14T07:23:42.106Z,1.70
2019-02-14T07:26:11.160Z,1.70
2019-02-14T07:28:40.940Z,1.80
2019-02-14T07:31:10.061Z,1.90
2019-02-14T07:33:40.753Z,1.90
2019-02-14T07:36:11.392Z,2.00
2019-02-14T07:38:39.974Z,2.00
2019-02-14T07:41:08.778Z,2.10
2019-02-14T07:43:38.850Z,2.10
2019-02-14T07:46:09.467Z,2.20
2019-02-14T07:48:38.316Z,2.30
2019-02-14T07:51:09.679Z,2.40
2019-02-14T07:53:41.096Z,2.40
2019-02-14T07:56:09.673Z,2.60
2019-02-14T07:58:38.229Z,2.60
2019-02-14T08:01:08.275Z,2.80
2019-02-14T08:03:40.265Z,2.90
2019-02-14T08:06:09.007Z,3.00
2019-02-14T08:08:37.928Z,3.00
2019-02-14T08:11:06.511Z,3.10
2019-02-14T08:13:35.071Z,3.10
2019-02-14T08:16:03.650Z,3.20
2019-02-14T08:18:32.228Z,3.30
2019-02-14T08:21:00.906Z,3.50
2019-02-14T08:23:29.394Z,3.60
2019-02-14T08:25:57.905Z,3.70
2019-02-14T08:28:26.395Z,3.80
2019-02-14T08:30:54.983Z,3.90
2019-02-14T08:33:23.546Z,4.00
2019-02-14T08:35:52.140Z,4.10
2019-02-14T08:38:20.703Z,4.20
2019-02-14T08:40:49.218Z,4.30
2019-02-14T08:43:17.707Z,4.40
2019-02-14T08:45:46.291Z,4.50
2019-02-14T08:48:14.886Z,4.60
2019-02-14T08:50:43.457Z,4.70
2019-02-14T08:53:12.031Z,4.70
2019-02-14T08:55:40.622Z,4.80
2019-02-14T08:58:09.183Z,4.90
2019-02-14T09:00:37.839Z,5.10
2019-02-14T09:03:06.328Z,5.30
2019-02-14T09:05:34.910Z,5.40
2019-02-14T09:08:03.484Z,5.60
2019-02-14T09:10:32.076Z,5.70
2019-02-14T09:13:00.811Z,5.90
2019-02-14T09:15:29.382Z,6.00
2019-02-14T09:17:57.964Z,6.00
2019-02-14T09:20:27.958Z,6.00
2019-02-14T09:22:56.518Z,6.00
2019-02-14T09:25:25.177Z,6.00
2019-02-14T09:27:53.737Z,6.10
2019-02-14T09:30:22.670Z,6.20
2019-02-14T09:32:51.422Z,6.30
2019-02-14T09:35:19.943Z,6.40
2019-02-14T09:37:48.448Z,6.50
2019-02-14T09:40:18.076Z,6.70
2019-02-14T09:42:46.633Z,7.00
2019-02-14T09:45:15.295Z,7.20
2019-02-14T09:47:43.922Z,7.40
2019-02-14T09:50:13.774Z,7.70
2019-02-14T09:52:42.396Z,7.80
2019-02-14T09:55:13.190Z,7.70
2019-02-14T09:57:41.757Z,7.70
2019-02-14T10:00:12.789Z,7.60
2019-02-14T10:02:41.347Z,7.70
2019-02-14T10:05:10.570Z,7.60
2019-02-14T10:07:39.057Z,7.60
2019-02-14T10:10:11.050Z,7.60
2019-02-14T10:12:39.886Z,7.60
2019-02-14T10:15:09.997Z,7.60
2019-02-14T10:17:38.556Z,7.50
2019-02-14T10:20:15.426Z,7.50
2019-02-14T10:22:43.997Z,7.40
2019-02-14T10:25:13.408Z,7.30
2019-02-14T10:27:41.966Z,7.30
2019-02-14T10:30:16.206Z,7.40
2019-02-14T10:32:44.778Z,7.60
2019-02-14T10:35:13.418Z,7.70
2019-02-14T10:37:42.079Z,7.80
2019-02-14T10:40:14.734Z,7.80
2019-02-14T10:42:43.372Z,7.90
2019-02-14T10:45:15.714Z,8.00
2019-02-14T10:47:44.223Z,8.10
2019-02-14T10:50:12.858Z,8.30
2019-02-14T10:52:41.457Z,8.30
2019-02-14T10:55:12.103Z,8.30
2019-02-14T10:57:40.695Z,8.20
2019-02-14T11:00:23.270Z,8.30
2019-02-14T11:02:51.974Z,8.30
2019-02-14T11:05:20.799Z,8.40
2019-02-14T11:07:49.454Z,8.50
2019-02-14T11:10:18.154Z,8.60
2019-02-14T11:12:46.807Z,8.70
2019-02-14T11:15:17.974Z,8.80
2019-02-14T11:17:48.424Z,8.80
2019-02-14T11:20:17.893Z,8.90
2019-02-14T11:22:48.815Z,8.90
2019-02-14T11:25:25.518Z,9.10
2019-02-14T11:27:54.099Z,9.30
2019-02-14T11:30:22.648Z,9.30
2019-02-14T11:32:51.236Z,9.40
2019-02-14T11:35:19.808Z,9.40
2019-02-14T11:37:48.385Z,9.60
2019-02-14T11:40:16.872Z,9.70
2019-02-14T11:42:45.463Z,9.70
2019-02-14T11:45:16.534Z,9.70
2019-02-14T11:47:45.042Z,9.50
2019-02-14T11:50:13.661Z,9.50
2019-02-14T11:52:42.256Z,9.50
2019-02-14T11:55:11.453Z,9.50
2019-02-14T11:57:40.138Z,9.60
2019-02-14T12:00:15.935Z,9.70
2019-02-14T12:02:44.526Z,9.80
2019-02-14T12:05:13.089Z,9.80
2019-02-14T12:07:41.673Z,9.90
2019-02-14T12:10:13.815Z,9.80
2019-02-14T12:12:42.530Z,9.90
2019-02-14T12:15:13.001Z,9.80
2019-02-14T12:17:41.721Z,9.70
2019-02-14T12:20:13.280Z,9.70
2019-02-14T12:22:46.882Z,9.70
2019-02-14T12:25:28.943Z,9.70
2019-02-14T12:27:57.532Z,9.80
2019-02-14T12:30:26.153Z,9.90
2019-02-14T12:32:54.750Z,9.90
2019-02-14T12:35:23.316Z,9.90
2019-02-14T12:37:51.913Z,9.90
2019-02-14T12:40:20.459Z,10.00
2019-02-14T12:42:49.056Z,10.10
2019-02-14T12:45:24.217Z,10.10
2019-02-14T12:47:53.079Z,10.10
2019-02-14T12:50:21.657Z,10.10
2019-02-14T12:52:50.241Z,10.10
2019-02-14T12:55:18.792Z,10.20
2019-02-14T12:57:48.086Z,10.20
2019-02-14T13:00:24.328Z,10.20
2019-02-14T13:02:52.971Z,10.20
2019-02-14T13:05:21.605Z,10.30
2019-02-14T13:07:50.267Z,10.30
2019-02-14T13:10:19.368Z,10.40
2019-02-14T13:12:48.018Z,10.30
2019-02-14T13:15:19.037Z,10.40
2019-02-14T13:17:47.629Z,10.30
2019-02-14T13:20:16.265Z,10.30
2019-02-14T13:22:44.858Z,10.30
2019-02-14T13:25:14.229Z,10.30
2019-02-14T13:27:42.743Z,10.40
2019-02-14T13:30:14.338Z,10.40
2019-02-14T13:32:42.921Z,10.40
2019-02-14T13:35:11.603Z,10.50
2019-02-14T13:37:40.610Z,10.60
2019-02-14T13:40:09.597Z,10.60
2019-02-14T13:42:38.265Z,10.70
2019-02-14T13:45:10.067Z,10.70
2019-02-14T13:47:38.661Z,10.70
2019-02-14T13:50:09.769Z,10.70
2019-02-14T13:52:38.354Z,10.70
2019-02-14T13:55:08.921Z,10.80
2019-02-14T13:57:37.495Z,10.80
2019-02-14T14:00:12.381Z,10.80
2019-02-14T14:02:40.973Z,10.80
2019-02-14T14:05:09.541Z,10.70
2019-02-14T14:07:40.284Z,10.70
2019-02-14T14:10:09.782Z,10.70
2019-02-14T14:12:38.348Z,10.70
2019-02-14T14:15:09.163Z,10.70
2019-02-14T14:17:37.726Z,10.70
2019-02-14T14:20:07.750Z,10.70
2019-02-14T14:22:36.317Z,10.70
2019-02-14T14:25:06.778Z,10.70
2019-02-14T14:27:35.386Z,10.70
2019-02-14T14:30:06.577Z,10.70
2019-02-14T14:32:35.149Z,10.70
2019-02-14T14:35:04.313Z,10.70
2019-02-14T14:37:32.874Z,10.70
2019-02-14T14:40:01.464Z,10.70
2019-02-14T14:42:31.670Z,10.70
2019-02-14T14:45:00.351Z,10.70
2019-02-14T14:47:28.926Z,10.60
2019-02-14T14:49:57.510Z,10.60
2019-02-14T14:52:26.358Z,10.60
2019-02-14T14:54:54.933Z,10.60
2019-02-14T14:57:23.422Z,10.50
2019-02-14T14:59:51.934Z,10.50
2019-02-14T15:02:20.571Z,10.50
2019-02-14T15:04:49.158Z,10.50
2019-02-14T15:07:17.717Z,10.50
2019-02-14T15:09:46.979Z,10.50
2019-02-14T15:12:15.778Z,10.50
2019-02-14T15:14:44.949Z,10.50
2019-02-14T15:17:13.519Z,10.40
2019-02-14T15:19:42.681Z,10.40
2019-02-14T15:22:11.245Z,10.30
2019-02-14T15:24:39.842Z,10.30
2019-02-14T15:27:08.330Z,10.20
2019-02-14T15:29:36.925Z,10.20
2019-02-14T15:32:05.506Z,10.10
2019-02-14T15:34:34.013Z,10.00
2019-02-14T15:37:02.489Z,9.90
2019-02-14T15:39:31.010Z,9.70
2019-02-14T15:41:59.561Z,9.60
2019-02-14T15:44:29.965Z,9.40
2019-02-14T15:47:00.228Z,9.20
2019-02-14T15:49:28.823Z,9.10
2019-02-14T15:51:57.385Z,8.90
2019-02-14T15:54:25.975Z,8.80
2019-02-14T15:56:56.568Z,8.70
2019-02-14T15:59:24.779Z,8.60
2019-02-14T16:01:53.411Z,8.50
2019-02-14T16:04:21.917Z,8.30
2019-02-14T16:06:52.258Z,8.30
2019-02-14T16:09:20.630Z,8.10
2019-02-14T16:11:49.140Z,8.00
2019-02-14T16:14:19.171Z,7.90
2019-02-14T16:16:47.934Z,7.80
2019-02-14T16:19:16.531Z,7.60
2019-02-14T16:21:45.088Z,7.60
2019-02-14T16:24:14.422Z,7.40
2019-02-14T16:26:43.921Z,7.40
2019-02-14T16:29:12.411Z,7.30
2019-02-14T16:31:44.889Z,7.30
2019-02-14T16:34:13.431Z,7.10
2019-02-14T16:36:42.010Z,7.00
2019-02-14T16:39:10.577Z,6.90
2019-02-14T16:41:39.157Z,6.80
2019-02-14T16:44:07.711Z,6.80
2019-02-14T16:46:36.281Z,6.60
2019-02-14T16:49:04.842Z,6.50
2019-02-14T16:51:33.356Z,6.50
2019-02-14T16:54:01.917Z,6.40
2019-02-14T16:56:30.439Z,6.40
2019-02-14T16:58:58.997Z,6.30
2019-02-14T17:01:27.569Z,6.30
2019-02-14T17:03:56.131Z,6.20
2019-02-14T17:06:24.714Z,6.10
2019-02-14T17:08:53.274Z,6.10
2019-02-14T17:11:21.787Z,6.10
2019-02-14T17:13:50.339Z,6.00
2019-02-14T17:16:18.922Z,6.00
2019-02-14T17:18:48.241Z,5.90
2019-02-14T17:21:16.817Z,5.90
2019-02-14T17:23:45.305Z,5.80
2019-02-14T17:26:13.886Z,5.70
2019-02-14T17:28:42.437Z,5.70
2019-02-14T17:31:11.011Z,5.60
2019-02-14T17:33:39.525Z,5.60
2019-02-14T17:36:08.090Z,5.50
2019-02-14T17:38:36.583Z,5.40
2019-02-14T17:41:05.161Z,5.40
2019-02-14T17:43:33.722Z,5.30
2019-02-14T17:46:02.298Z,5.30
2019-02-14T17:48:30.777Z,5.30
2019-02-14T17:50:59.287Z,5.20
2019-02-14T17:53:27.845Z,5.20
2019-02-14T17:55:56.338Z,5.10
2019-02-14T17:58:25.005Z,5.10
2019-02-14T18:00:53.590Z,5.10
2019-02-14T18:03:22.155Z,5.00
2019-02-14T18:05:50.717Z,5.00
2019-02-14T18:08:19.303Z,4.90
2019-02-14T18:10:54.750Z,4.90
2019-02-14T18:13:18.085Z,4.90
2019-02-14T18:15:46.576Z,4.80
2019-02-14T18:18:15.160Z,4.80
2019-02-14T18:20:43.725Z,4.80
2019-02-14T18:23:12.310Z,4.70
2019-02-14T18:25:40.877Z,4.70
2019-02-14T18:28:09.453Z,4.70
2019-02-14T18:30:37.955Z,4.60
2019-02-14T18:33:06.529Z,4.60
2019-02-14T18:35:35.026Z,4.60
2019-02-14T18:38:03.610Z,4.60
2019-02-14T18:40:32.174Z,4.50
2019-02-14T18:43:00.686Z,4.50
2019-02-14T18:45:29.183Z,4.40
2019-02-14T18:47:57.769Z,4.40
2019-02-14T18:50:26.331Z,4.40
2019-02-14T18:52:54.844Z,4.40
2019-02-14T18:55:23.410Z,4.30
2019-02-14T18:57:51.998Z,4.30
2019-02-14T19:00:20.958Z,4.30
2019-02-14T19:02:49.538Z,4.20
2019-02-14T19:05:18.934Z,4.20
2019-02-14T19:07:47.454Z,4.10
2019-02-14T19:10:18.783Z,4.10
2019-02-14T19:12:47.360Z,4.10
2019-02-14T19:15:15.998Z,4.00
2019-02-14T19:17:44.577Z,4.00
2019-02-14T19:20:13.777Z,4.00
2019-02-14T19:22:42.636Z,4.00
2019-02-14T19:25:12.081Z,4.00
2019-02-14T19:27:41.566Z,4.00
2019-02-14T19:30:12.148Z,4.00
2019-02-14T19:32:40.711Z,3.90
2019-02-14T19:35:09.627Z,3.90
2019-02-14T19:37:38.719Z,3.90
2019-02-14T19:40:08.529Z,3.80
2019-02-14T19:42:38.347Z,3.80
2019-02-14T19:45:09.324Z,3.80
2019-02-14T19:47:37.902Z,3.80
2019-02-14T19:50:10.883Z,3.70
2019-02-14T19:52:39.467Z,3.70
2019-02-14T19:55:09.753Z,3.70
2019-02-14T19:57:38.255Z,3.70
2019-02-14T20:00:10.184Z,3.60
2019-02-14T20:02:45.333Z,3.60
2019-02-14T20:05:14.249Z,3.60
2019-02-14T20:07:42.822Z,3.60
2019-02-14T20:10:13.698Z,3.60
2019-02-14T20:12:42.515Z,3.60
2019-02-14T20:15:19.547Z,3.50
2019-02-14T20:17:48.207Z,3.50
2019-02-14T20:20:16.949Z,3.50
2019-02-14T20:22:45.462Z,3.50
2019-02-14T20:25:17.516Z,3.50
2019-02-14T20:27:46.169Z,3.50
2019-02-14T20:30:14.660Z,3.40
2019-02-14T20:32:43.224Z,3.40
2019-02-14T20:35:11.878Z,3.40
2019-02-14T20:37:40.525Z,3.30
2019-02-14T20:40:10.327Z,3.30
2019-02-14T20:42:39.220Z,3.20
2019-02-14T20:45:11.086Z,3.20
2019-02-14T20:47:39.835Z,3.20
2019-02-14T20:50:13.389Z,3.20
2019-02-14T20:52:41.888Z,3.20
2019-02-14T20:55:15.829Z,3.20
2019-02-14T20:57:44.795Z,3.10
2019-02-14T21:00:15.855Z,3.10
2019-02-14T21:02:44.707Z,3.10
2019-02-14T21:05:14.945Z,3.10
2019-02-14T21:07:43.500Z,3.10
2019-02-14T21:10:12.137Z,3.00
2019-02-14T21:12:40.773Z,3.00
2019-02-14T21:15:11.683Z,2.90
2019-02-14T21:17:40.245Z,2.90
2019-02-14T21:20:11.145Z,2.90
2019-02-14T21:22:39.679Z,2.90
2019-02-14T21:25:09.094Z,2.80
2019-02-14T21:27:37.663Z,2.80
2019-02-14T21:30:12.227Z,2.70
2019-02-14T21:32:40.797Z,2.70
2019-02-14T21:35:09.461Z,2.70
2019-02-14T21:37:39.222Z,2.70
2019-02-14T21:40:14.198Z,2.70
2019-02-14T21:42:42.765Z,2.60
2019-02-14T21:45:12.982Z,2.60
2019-02-14T21:47:43.959Z,2.60
2019-02-14T21:50:13.868Z,2.50
2019-02-14T21:52:42.580Z,2.50
2019-02-14T21:55:13.085Z,2.50
2019-02-14T21:57:41.638Z,2.50
2019-02-14T22:00:19.271Z,2.50
2019-02-14T22:02:47.853Z,2.50
2019-02-14T22:05:16.785Z,2.50
2019-02-14T22:07:45.516Z,2.50
2019-02-14T22:10:14.250Z,2.40
2019-02-14T22:12:43.715Z,2.40
2019-02-14T22:15:18.312Z,2.40
2019-02-14T22:17:46.894Z,2.40
2019-02-14T22:20:15.445Z,2.40
2019-02-14T22:22:44.091Z,2.40
2019-02-14T22:25:12.743Z,2.30
2019-02-14T22:27:41.762Z,2.30
2019-02-14T22:30:13.355Z,2.30
2019-02-14T22:32:43.380Z,2.30
2019-02-14T22:35:12.029Z,2.20
2019-02-14T22:37:42.135Z,2.20
2019-02-14T22:40:11.994Z,2.20
2019-02-14T22:42:47.022Z,2.10
2019-02-14T22:45:13.736Z,2.10
2019-02-14T22:47:43.477Z,2.00
2019-02-14T22:50:12.589Z,1.90
2019-02-14T22:52:41.077Z,2.00
2019-02-14T22:55:12.098Z,1.90
2019-02-14T22:57:40.737Z,1.90
2019-02-14T23:00:28.621Z,1.80
2019-02-14T23:02:57.186Z,1.80
2019-02-14T23:05:25.839Z,1.80
2019-02-14T23:07:54.412Z,1.70
2019-02-14T23:10:24.051Z,1.70
2019-02-14T23:12:55.707Z,1.70
2019-02-14T23:15:23.009Z,1.70
2019-02-14T23:17:51.770Z,1.60
2019-02-14T23:20:20.282Z,1.60
2019-02-14T23:22:48.770Z,1.70
2019-02-14T23:25:17.532Z,1.70
2019-02-14T23:27:46.093Z,1.60
2019-02-14T23:30:14.611Z,1.60
2019-02-14T23:32:43.165Z,1.60
2019-02-14T23:35:13.101Z,1.50
2019-02-14T23:37:41.632Z,1.50
2019-02-14T23:40:10.361Z,1.50
2019-02-14T23:42:38.923Z,1.40
2019-02-14T23:45:10.926Z,1.40
2019-02-14T23:47:39.501Z,1.30
2019-02-14T23:50:11.542Z,1.40
2019-02-14T23:52:40.118Z,1.30
2019-02-14T23:55:09.041Z,1.30
2019-02-14T23:57:37.786Z,1.30
